Time;durP1;ratioP1;P1;durP2;ratioP2;P2;SDS_P1;SDS_P2;PMS_P1;PMS_P2;Temp;Humidity;BMP_temperature;BMP_pressure;BME280_temperature;BME280_humidity;BME280_pressure;Samples;Min_cycle;Max_cycle;Signal;HPM_P1;HPM_P2
2022/06/18 00:00:23;;;;;;;7.37;4.60;;;15.00;43.10;;;;;;5070995;28;46636;-62
2022/06/18 00:02:49;;;;;;;6.40;3.43;;;15.00;43.00;;;;;;5076214;28;47494;-62
2022/06/18 00:05:16;;;;;;;8.07;4.00;;;15.00;43.10;;;;;;5072013;28;46481;-63
2022/06/18 00:07:53;;;;;;;8.50;4.17;;;14.90;43.60;;;;;;5072212;28;46557;-63
2022/06/18 00:10:22;;;;;;;7.60;4.13;;;14.80;45.20;;;;;;5072111;28;46398;-62
2022/06/18 00:15:36;;;;;;;7.60;4.23;;;14.80;44.00;;;;;;5069603;28;46420;-61
2022/06/18 00:18:02;;;;;;;8.00;3.80;;;14.70;44.20;;;;;;5070756;28;45893;-62
2022/06/18 00:20:32;;;;;;;7.07;4.43;;;14.80;44.30;;;;;;5070619;28;46637;-62
2022/06/18 00:23:01;;;;;;;10.43;4.60;;;14.90;44.10;;;;;;5068237;28;46648;-63
2022/06/18 00:25:26;;;;;;;10.43;4.20;;;14.90;43.90;;;;;;5073021;28;46417;-63
2022/06/18 00:27:52;;;;;;;7.20;4.20;;;14.90;43.90;;;;;;5068757;28;46683;-62
2022/06/18 00:30:20;;;;;;;8.90;3.70;;;14.90;44.10;;;;;;5071198;28;46558;-62
2022/06/18 00:32:46;;;;;;;8.03;4.43;;;14.80;44.30;;;;;;5071822;28;46487;-62
2022/06/18 00:35:12;;;;;;;7.60;3.83;;;14.60;44.60;;;;;;5073233;28;46518;-63
2022/06/18 00:37:43;;;;;;;8.37;4.60;;;14.50;44.90;;;;;;5071759;28;46702;-61
2022/06/18 00:40:32;;;;;;;13.43;4.60;;;14.40;45.40;;;;;;5069217;28;46453;-61
2022/06/18 00:43:02;;;;;;;9.63;3.57;;;14.30;46.00;;;;;;5073575;28;46307;-64
2022/06/18 00:45:30;;;;;;;11.47;3.90;;;14.30;45.70;;;;;;5069996;28;46388;-63
2022/06/18 00:47:58;;;;;;;11.40;4.50;;;14.30;45.90;;;;;;5071298;28;46380;-62
2022/06/18 00:50:31;;;;;;;9.20;4.13;;;14.20;45.90;;;;;;5071169;28;46375;-61
2022/06/18 00:53:04;;;;;;;9.73;4.33;;;14.20;46.10;;;;;;5071761;28;47257;-63
2022/06/18 00:55:42;;;;;;;8.50;4.13;;;14.10;46.20;;;;;;5071982;28;46429;-62
2022/06/18 00:58:23;;;;;;;6.80;4.50;;;14.10;46.40;;;;;;5070720;28;45773;-63
2022/06/18 01:00:50;;;;;;;9.27;4.13;;;14.10;46.60;;;;;;5067181;28;46419;-63
2022/06/18 01:03:35;;;;;;;11.17;4.77;;;14.10;46.30;;;;;;5070210;28;48166;-62
2022/06/18 01:06:10;;;;;;;13.13;4.80;;;14.10;46.60;;;;;;5069592;28;46496;-63
2022/06/18 01:08:35;;;;;;;9.53;4.47;;;14.20;46.20;;;;;;5072097;28;45893;-62
2022/06/18 01:11:05;;;;;;;10.80;4.90;;;14.20;46.10;;;;;;5068215;28;46387;-64
2022/06/18 01:13:40;;;;;;;8.10;4.33;;;14.30;46.20;;;;;;5070922;28;46432;-63
2022/06/18 01:16:08;;;;;;;9.93;4.87;;;14.30;46.30;;;;;;5069780;28;47282;-63
2022/06/18 01:18:34;;;;;;;7.53;5.10;;;14.30;46.10;;;;;;5065349;28;46473;-63
2022/06/18 01:21:08;;;;;;;6.97;4.30;;;14.30;46.30;;;;;;5069545;28;46433;-63
2022/06/18 01:23:41;;;;;;;6.47;4.33;;;14.30;46.50;;;;;;5073335;27;47353;-61
2022/06/18 01:26:08;;;;;;;8.83;4.90;;;14.30;46.50;;;;;;5073558;28;46418;-61
2022/06/18 01:28:34;;;;;;;8.57;4.60;;;14.30;46.30;;;;;;5073006;28;46265;-62
2022/06/18 01:31:00;;;;;;;11.30;4.53;;;14.30;46.40;;;;;;5071456;28;46701;-63
2022/06/18 01:33:26;;;;;;;6.33;4.07;;;14.30;46.40;;;;;;5072347;28;46419;-62
2022/06/18 01:35:54;;;;;;;6.83;3.87;;;14.30;46.60;;;;;;5074015;28;46460;-63
2022/06/18 01:38:20;;;;;;;16.30;3.83;;;14.20;46.70;;;;;;5069993;28;46315;-63
2022/06/18 01:43:57;;;;;;;13.63;4.90;;;14.00;48.30;;;;;;5069350;28;46555;-61
2022/06/18 01:46:23;;;;;;;8.40;3.87;;;13.80;47.20;;;;;;5069569;28;46351;-63
2022/06/18 01:48:50;;;;;;;6.27;3.93;;;13.60;47.30;;;;;;5071362;28;46497;-63
2022/06/18 01:51:29;;;;;;;7.07;3.77;;;13.50;47.40;;;;;;5071371;27;46703;-62
2022/06/18 01:54:07;;;;;;;7.17;3.87;;;13.50;47.80;;;;;;5072508;28;46364;-63
2022/06/18 01:56:39;;;;;;;9.33;4.37;;;13.50;47.90;;;;;;5067777;28;46462;-63
2022/06/18 01:59:10;;;;;;;7.40;3.90;;;13.50;47.60;;;;;;5069358;28;45800;-62
2022/06/18 02:01:39;;;;;;;7.50;3.93;;;13.50;47.50;;;;;;5068153;28;46574;-62
2022/06/18 02:04:05;;;;;;;9.90;4.30;;;13.50;47.50;;;;;;5068020;28;47329;-65
2022/06/18 02:06:34;;;;;;;9.20;3.97;;;13.50;47.70;;;;;;5071219;28;46388;-63
2022/06/18 02:09:13;;;;;;;9.43;4.30;;;13.50;47.70;;;;;;5065240;28;46513;-62
2022/06/18 02:11:39;;;;;;;10.20;5.13;;;13.50;48.20;;;;;;5069730;28;46453;-65
2022/06/18 02:14:09;;;;;;;7.50;4.53;;;13.60;47.80;;;;;;5065617;28;48948;-64
2022/06/18 02:16:40;;;;;;;7.90;4.60;;;13.60;47.80;;;;;;5068563;28;46491;-64
2022/06/18 02:19:08;;;;;;;9.43;5.20;;;13.60;47.90;;;;;;5069768;28;46430;-63
2022/06/18 02:21:40;;;;;;;10.47;5.00;;;13.60;47.90;;;;;;5063560;28;46652;-64
2022/06/18 02:24:06;;;;;;;12.67;4.67;;;13.70;48.00;;;;;;5070074;28;46726;-63
2022/06/18 02:26:32;;;;;;;9.10;4.63;;;13.70;47.70;;;;;;5070955;28;46698;-62
2022/06/18 02:28:58;;;;;;;12.37;4.90;;;13.80;47.80;;;;;;5068084;28;46407;-63
2022/06/18 02:31:31;;;;;;;8.47;4.60;;;13.80;47.80;;;;;;5073863;28;46505;-64
2022/06/18 02:34:11;;;;;;;7.53;4.13;;;13.80;47.80;;;;;;5071694;28;47029;-62
2022/06/18 02:36:40;;;;;;;6.60;4.03;;;13.70;48.00;;;;;;5070427;28;45743;-61
2022/06/18 02:39:24;;;;;;;11.03;4.57;;;13.60;47.90;;;;;;5069001;28;46467;-63
2022/06/18 02:42:02;;;;;;;6.83;4.30;;;13.40;48.40;;;;;;5071423;28;46675;-64
2022/06/18 02:44:28;;;;;;;11.53;4.00;;;13.30;48.60;;;;;;5066261;28;46707;-62
2022/06/18 02:46:54;;;;;;;6.40;4.60;;;13.20;48.70;;;;;;5068228;28;46417;-64
2022/06/18 02:49:20;;;;;;;7.80;4.60;;;13.20;48.80;;;;;;5066892;28;46259;-64
2022/06/18 02:51:45;;;;;;;11.20;5.10;;;13.10;48.80;;;;;;5069576;28;46572;-63
2022/06/18 02:54:11;;;;;;;6.60;3.93;;;13.20;48.90;;;;;;5067849;28;46422;-64
2022/06/18 02:56:37;;;;;;;7.50;4.30;;;13.20;48.90;;;;;;5065003;28;46342;-63
2022/06/18 02:59:04;;;;;;;9.40;4.40;;;13.20;48.80;;;;;;5069771;28;45858;-62
2022/06/18 03:01:32;;;;;;;6.83;4.47;;;13.20;48.90;;;;;;5068833;28;46677;-63
2022/06/18 03:04:00;;;;;;;10.03;4.00;;;13.20;48.90;;;;;;5069850;28;46693;-64
2022/06/18 03:06:28;;;;;;;6.90;3.73;;;13.20;49.00;;;;;;5068258;28;45756;-64
2022/06/18 03:08:55;;;;;;;11.07;3.67;;;13.10;49.10;;;;;;5066378;28;46707;-62
2022/06/18 03:14:08;;;;;;;10.10;4.40;;;13.00;49.40;;;;;;5068681;28;46703;-63
2022/06/18 03:16:34;;;;;;;11.30;4.07;;;13.00;49.40;;;;;;5072008;28;46386;-61
2022/06/18 03:19:02;;;;;;;15.03;4.80;;;13.00;49.40;;;;;;5071216;28;46398;-63
2022/06/18 03:21:36;;;;;;;7.83;4.43;;;13.00;49.50;;;;;;5069418;28;46334;-64
2022/06/18 03:24:02;;;;;;;7.83;4.60;;;13.10;49.40;;;;;;5067956;28;46649;-64
2022/06/18 03:26:28;;;;;;;8.63;4.80;;;13.30;49.10;;;;;;5070634;28;46435;-64
2022/06/18 03:28:54;;;;;;;12.03;4.53;;;13.40;48.80;;;;;;5070539;28;46380;-63
2022/06/18 03:31:20;;;;;;;16.23;4.90;;;13.50;48.70;;;;;;5070014;28;46458;-62
2022/06/18 03:33:47;;;;;;;14.67;4.90;;;13.70;48.70;;;;;;5066480;28;46416;-61
2022/06/18 03:36:16;;;;;;;12.70;4.67;;;13.80;48.90;;;;;;5068204;28;46450;-61
2022/06/18 03:38:43;;;;;;;15.50;5.60;;;14.00;48.90;;;;;;5066909;28;46361;-61
2022/06/18 03:41:10;;;;;;;6.23;4.33;;;14.10;48.60;;;;;;5070699;28;46896;-63
2022/06/18 03:43:36;;;;;;;11.17;4.53;;;14.20;48.30;;;;;;5069303;28;46028;-62
2022/06/18 03:46:07;;;;;;;9.90;4.40;;;14.40;48.00;;;;;;5067040;28;45804;-63
2022/06/18 03:48:48;;;;;;;12.23;4.83;;;14.50;47.70;;;;;;5071335;28;45767;-63
2022/06/18 03:51:15;;;;;;;5.60;4.00;;;14.60;47.70;;;;;;5073992;28;45889;-64
2022/06/18 03:53:41;;;;;;;7.03;4.50;;;14.70;47.30;;;;;;5074340;28;46374;-63
2022/06/18 03:56:08;;;;;;;6.30;4.20;;;14.80;47.10;;;;;;5074516;28;46408;-63
2022/06/18 03:58:34;;;;;;;10.63;4.60;;;15.00;46.80;;;;;;5073276;28;46470;-62
2022/06/18 04:01:00;;;;;;;8.33;4.57;;;15.10;46.50;;;;;;5074563;28;46406;-64
2022/06/18 04:03:25;;;;;;;7.90;4.07;;;15.20;46.20;;;;;;5072715;28;46435;-64
2022/06/18 04:05:52;;;;;;;5.50;4.17;;;15.30;46.20;;;;;;5074201;28;46623;-64
2022/06/18 04:08:20;;;;;;;11.77;4.20;;;15.40;46.10;;;;;;5073797;28;46486;-61
2022/06/18 04:10:47;;;;;;;5.67;4.00;;;15.50;45.80;;;;;;5075667;28;46553;-61
2022/06/18 04:13:14;;;;;;;9.17;3.90;;;15.60;45.70;;;;;;5071102;28;47385;-65
2022/06/18 04:15:40;;;;;;;13.27;4.10;;;15.70;45.50;;;;;;5073401;28;46368;-64
2022/06/18 04:18:12;;;;;;;7.97;4.20;;;15.80;45.40;;;;;;5070786;28;46446;-65
2022/06/18 04:20:38;;;;;;;14.87;4.70;;;15.90;45.00;;;;;;5070876;28;46363;-63
2022/06/18 04:23:05;;;;;;;6.67;3.70;;;16.10;44.50;;;;;;5072024;28;46472;-62
2022/06/18 04:25:31;;;;;;;5.23;4.00;;;16.30;44.20;;;;;;5070015;28;46367;-62
2022/06/18 04:27:57;;;;;;;8.30;4.13;;;16.40;44.30;;;;;;5072470;28;46478;-63
2022/06/18 04:30:25;;;;;;;9.53;4.63;;;16.50;44.40;;;;;;5066510;28;46756;-63
2022/06/18 04:32:51;;;;;;;9.83;3.93;;;16.70;44.60;;;;;;5070902;28;48499;-63
2022/06/18 04:35:17;;;;;;;4.60;3.27;;;16.90;43.60;;;;;;5071625;28;46405;-62
2022/06/18 04:37:44;;;;;;;5.03;3.43;;;17.20;43.00;;;;;;5067961;28;46267;-62
2022/06/18 04:40:18;;;;;;;6.23;3.73;;;17.40;42.20;;;;;;5071469;28;46724;-64
2022/06/18 04:42:44;;;;;;;5.40;3.63;;;17.80;41.30;;;;;;5065664;28;46453;-62
2022/06/18 04:45:10;;;;;;;8.53;3.90;;;18.60;39.90;;;;;;5071421;28;46416;-62
2022/06/18 04:47:36;;;;;;;7.43;3.67;;;20.00;37.70;;;;;;5070340;28;46413;-62
2022/06/18 04:50:04;;;;;;;5.03;3.23;;;21.20;36.40;;;;;;5071493;28;46566;-63
2022/06/18 04:52:29;;;;;;;12.20;3.83;;;22.10;32.20;;;;;;5071464;28;46426;-64
2022/06/18 04:54:58;;;;;;;4.50;2.97;;;23.00;30.00;;;;;;5074753;28;46419;-62
2022/06/18 04:57:23;;;;;;;5.23;3.40;;;23.80;28.40;;;;;;5065828;28;46521;-61
2022/06/18 04:59:49;;;;;;;10.30;3.20;;;24.40;26.60;;;;;;5074777;28;46283;-62
2022/06/18 05:02:29;;;;;;;6.00;3.03;;;25.10;26.00;;;;;;5067075;28;47156;-63
2022/06/18 05:04:55;;;;;;;4.80;2.70;;;25.60;23.80;;;;;;5071868;28;46452;-63
2022/06/18 05:07:20;;;;;;;5.47;2.87;;;26.20;22.80;;;;;;5077190;28;47171;-64
2022/06/18 05:09:46;;;;;;;5.60;3.37;;;26.90;21.50;;;;;;5070617;28;46614;-62
2022/06/18 05:12:12;;;;;;;5.93;3.57;;;27.50;20.40;;;;;;5070647;28;47075;-63
2022/06/18 05:14:38;;;;;;;5.10;3.30;;;28.00;19.40;;;;;;5074325;28;46368;-62
2022/06/18 05:17:06;;;;;;;6.17;3.20;;;28.40;18.60;;;;;;5068295;28;46497;-63
2022/06/18 05:19:33;;;;;;;6.87;3.17;;;28.90;17.70;;;;;;5070190;28;46393;-61
2022/06/18 05:21:59;;;;;;;5.07;3.50;;;29.40;17.20;;;;;;5071467;28;46524;-62
2022/06/18 05:24:25;;;;;;;4.43;2.90;;;29.80;16.30;;;;;;5074109;28;46439;-61
2022/06/18 05:26:54;;;;;;;7.73;2.57;;;30.20;15.50;;;;;;5070118;28;45921;-63
2022/06/18 05:29:20;;;;;;;7.00;2.97;;;30.20;15.40;;;;;;5067480;28;46671;-62
2022/06/18 05:31:46;;;;;;;5.20;2.53;;;30.60;14.60;;;;;;5069932;28;46388;-63
2022/06/18 05:34:12;;;;;;;9.13;2.70;;;30.90;13.90;;;;;;5069800;28;46375;-62
2022/06/18 05:36:37;;;;;;;6.40;2.93;;;31.00;13.10;;;;;;5069472;28;46638;-64
2022/06/18 05:39:05;;;;;;;4.80;2.83;;;31.20;12.70;;;;;;5068562;28;46470;-62
2022/06/18 05:41:31;;;;;;;6.17;2.60;;;31.40;12.20;;;;;;5073198;28;46424;-62
2022/06/18 05:43:57;;;;;;;4.20;2.80;;;31.70;11.60;;;;;;5068315;28;46294;-61
2022/06/18 05:46:23;;;;;;;4.40;2.90;;;31.80;11.10;;;;;;5071805;28;46456;-62
2022/06/18 05:48:49;;;;;;;4.23;2.37;;;32.20;10.60;;;;;;5067772;28;46458;-63
2022/06/18 05:51:15;;;;;;;6.60;2.63;;;32.30;10.50;;;;;;5068659;28;48102;-62
2022/06/18 05:53:41;;;;;;;4.77;2.73;;;32.30;9.90;;;;;;5075105;28;46439;-62
2022/06/18 05:56:08;;;;;;;6.07;2.80;;;31.20;11.60;;;;;;5067250;28;46479;-62
2022/06/18 05:58:34;;;;;;;4.30;2.60;;;29.40;14.30;;;;;;5067960;28;46444;-64
2022/06/18 06:01:00;;;;;;;7.77;2.83;;;28.10;16.50;;;;;;5067978;28;46358;-63
2022/06/18 06:03:25;;;;;;;6.60;2.80;;;27.10;18.50;;;;;;5068606;28;46138;-61
2022/06/18 06:05:51;;;;;;;4.70;2.37;;;26.60;19.70;;;;;;5068958;28;46385;-61
2022/06/18 06:08:16;;;;;;;4.03;2.40;;;26.00;20.30;;;;;;5069019;27;46447;-60
2022/06/18 06:13:28;;;;;;;4.73;2.77;;;25.50;21.40;;;;;;5067593;28;46328;-64
2022/06/18 06:15:54;;;;;;;6.13;2.77;;;25.60;21.20;;;;;;5069987;28;46622;-62
2022/06/18 06:18:22;;;;;;;11.30;7.10;;;25.60;20.90;;;;;;5064363;28;45873;-60
2022/06/18 06:20:50;;;;;;;7.80;5.67;;;25.60;20.70;;;;;;5069258;28;46364;-62
2022/06/18 06:23:16;;;;;;;5.10;3.60;;;25.60;20.70;;;;;;5070211;28;46497;-63
2022/06/18 06:25:44;;;;;;;7.60;4.13;;;25.40;20.80;;;;;;5072337;28;46366;-64
2022/06/18 06:28:15;;;;;;;8.90;7.03;;;25.50;20.90;;;;;;5071950;28;46393;-60
2022/06/18 06:30:41;;;;;;;9.73;4.87;;;25.50;20.90;;;;;;5074258;28;46533;-62
2022/06/18 06:33:07;;;;;;;8.67;4.90;;;25.60;20.90;;;;;;5072592;28;46516;-62
2022/06/18 06:35:33;;;;;;;9.03;2.90;;;25.60;20.70;;;;;;5072408;28;47222;-65
2022/06/18 06:37:59;;;;;;;4.63;2.60;;;25.70;20.70;;;;;;5070082;28;46792;-63
2022/06/18 06:40:25;;;;;;;4.50;2.90;;;25.60;20.60;;;;;;5070171;28;46596;-62
2022/06/18 06:42:52;;;;;;;3.87;2.63;;;25.60;20.70;;;;;;5070374;28;46432;-61
2022/06/18 06:45:22;;;;;;;5.40;3.37;;;25.70;20.70;;;;;;5072199;28;46417;-62
2022/06/18 06:47:48;;;;;;;9.20;3.17;;;25.80;20.70;;;;;;5066596;28;46381;-63
2022/06/18 06:50:16;;;;;;;8.13;2.90;;;26.00;20.60;;;;;;5069171;27;46369;-61
2022/06/18 06:52:43;;;;;;;7.00;3.00;;;26.10;20.40;;;;;;5069185;28;46429;-63
2022/06/18 06:58:16;;;;;;;3.97;2.73;;;26.20;20.30;;;;;;5065841;28;46408;-62
2022/06/18 07:00:45;;;;;;;5.70;2.60;;;26.30;20.30;;;;;;5068211;28;46533;-63
2022/06/18 07:03:15;;;;;;;5.47;3.00;;;26.40;20.20;;;;;;5067073;28;47505;-65
2022/06/18 07:05:41;;;;;;;5.87;2.33;;;26.50;20.00;;;;;;5069746;28;46373;-61
2022/06/18 07:08:07;;;;;;;5.97;2.47;;;26.50;19.80;;;;;;5071637;28;46857;-61
2022/06/18 07:10:34;;;;;;;5.03;2.30;;;26.50;19.90;;;;;;5066628;28;46378;-61
2022/06/18 07:12:59;;;;;;;4.00;2.50;;;26.60;19.80;;;;;;5068897;28;46711;-62
2022/06/18 07:15:25;;;;;;;4.20;2.60;;;26.70;19.60;;;;;;5069427;28;46692;-63
2022/06/18 07:17:51;;;;;;;4.77;2.40;;;26.90;19.70;;;;;;5069781;28;46486;-62
2022/06/18 07:20:19;;;;;;;5.13;2.67;;;27.10;19.50;;;;;;5069180;28;47244;-65
2022/06/18 07:22:45;;;;;;;5.87;2.50;;;27.20;19.40;;;;;;5077278;27;46499;-63
2022/06/18 07:25:13;;;;;;;4.90;2.70;;;27.20;19.40;;;;;;5075115;28;46532;-60
2022/06/18 07:27:39;;;;;;;4.53;2.60;;;27.30;19.40;;;;;;5072912;28;46346;-61
2022/06/18 07:30:08;;;;;;;5.23;2.23;;;27.30;19.50;;;;;;5072293;28;46405;-64
2022/06/18 07:32:42;;;;;;;5.70;2.53;;;27.30;19.30;;;;;;5073454;28;46562;-61
2022/06/18 07:35:15;;;;;;;5.70;2.30;;;27.40;19.50;;;;;;5078687;28;46471;-61
2022/06/18 07:37:41;;;;;;;8.57;2.30;;;27.40;19.80;;;;;;5073074;28;46432;-61
2022/06/18 07:40:07;;;;;;;5.20;2.60;;;27.50;19.80;;;;;;5069984;28;46409;-63
2022/06/18 07:42:32;;;;;;;5.90;2.63;;;27.70;19.70;;;;;;5073180;28;46393;-62
2022/06/18 07:44:58;;;;;;;5.83;2.50;;;27.80;19.50;;;;;;5076376;28;45920;-61
2022/06/18 07:47:24;;;;;;;4.07;2.27;;;27.90;19.40;;;;;;5070805;28;46413;-61
2022/06/18 07:49:49;;;;;;;5.57;2.67;;;28.10;19.10;;;;;;5071994;28;46953;-62
2022/06/18 07:52:15;;;;;;;4.30;2.50;;;28.20;19.20;;;;;;5073883;28;46465;-64
2022/06/18 07:54:42;;;;;;;4.90;2.73;;;28.50;19.00;;;;;;5073010;28;45814;-63
2022/06/18 07:57:08;;;;;;;3.93;2.70;;;28.60;18.50;;;;;;5070550;28;46418;-64
2022/06/18 07:59:34;;;;;;;6.07;2.73;;;28.60;18.10;;;;;;5068388;28;46427;-63
2022/06/18 08:02:00;;;;;;;6.00;2.37;;;28.70;17.70;;;;;;5069904;28;46664;-63
2022/06/18 08:04:26;;;;;;;5.57;2.23;;;28.90;17.00;;;;;;5070295;28;46326;-63
2022/06/18 08:06:52;;;;;;;4.50;2.60;;;29.00;17.00;;;;;;5071012;28;46445;-65
2022/06/18 08:09:18;;;;;;;6.00;2.73;;;29.10;17.10;;;;;;5068670;28;46333;-62
2022/06/18 08:11:44;;;;;;;5.87;2.40;;;29.30;17.20;;;;;;5066829;28;46492;-61
2022/06/18 08:14:11;;;;;;;6.63;2.13;;;29.30;16.70;;;;;;5070830;28;46724;-62
2022/06/18 08:16:36;;;;;;;7.27;2.50;;;29.30;16.70;;;;;;5070151;28;46548;-62
2022/06/18 08:19:02;;;;;;;3.33;2.30;;;29.40;16.70;;;;;;5069790;28;48763;-63
2022/06/18 08:21:46;;;;;;;6.83;2.40;;;29.40;16.50;;;;;;5072443;28;46349;-62
2022/06/18 08:24:17;;;;;;;4.43;2.30;;;29.40;16.40;;;;;;5077082;28;46484;-62
2022/06/18 08:26:44;;;;;;;3.90;2.57;;;29.50;16.00;;;;;;5070848;28;46502;-63
2022/06/18 08:29:13;;;;;;;3.70;2.57;;;29.50;15.50;;;;;;5068648;28;46530;-62
2022/06/18 08:31:38;;;;;;;3.93;2.20;;;29.60;15.60;;;;;;5070353;28;45843;-60
2022/06/18 08:34:04;;;;;;;4.70;2.60;;;29.50;15.80;;;;;;5072132;28;46430;-62
2022/06/18 08:36:29;;;;;;;3.77;2.47;;;29.50;15.40;;;;;;5072500;28;46658;-61
2022/06/18 08:38:56;;;;;;;5.07;2.50;;;29.70;14.90;;;;;;5069865;28;46606;-62
2022/06/18 08:41:51;;;;;;;5.20;2.50;;;29.70;14.70;;;;;;5071869;28;46497;-61
2022/06/18 08:44:37;;;;;;;2.83;1.90;;;30.00;14.30;;;;;;5070988;28;46514;-62
2022/06/18 08:47:40;;;;;;;3.20;1.90;;;30.00;13.50;;;;;;5071749;28;46465;-63
2022/06/18 08:50:39;;;;;;;5.97;2.30;;;30.10;13.20;;;;;;5069582;28;46777;-62
2022/06/18 08:53:26;;;;;;;11.37;3.10;;;30.20;13.40;;;;;;5074362;28;46369;-65
2022/06/18 08:56:19;;;;;;;3.80;1.87;;;30.30;13.00;;;;;;5072871;28;46413;-61
2022/06/18 08:59:07;;;;;;;9.13;2.67;;;30.60;12.40;;;;;;5066280;28;46576;-61
2022/06/18 09:02:18;;;;;;;8.40;2.30;;;30.60;12.20;;;;;;5070098;28;47491;-63
2022/06/18 09:04:53;;;;;;;3.40;2.23;;;30.70;13.00;;;;;;5012157;28;46487;-63
2022/06/18 09:07:42;;;;;;;5.23;1.90;;;30.60;11.60;;;;;;5010690;28;46647;-64
2022/06/18 09:10:20;;;;;;;6.30;2.30;;;30.60;11.60;;;;;;5051595;28;46522;-62
2022/06/18 09:12:59;;;;;;;6.90;2.03;;;30.70;11.80;;;;;;5070302;28;46342;-62
2022/06/18 09:15:29;;;;;;;7.70;2.27;;;30.80;11.50;;;;;;5072793;28;46488;-61
2022/06/18 09:18:19;;;;;;;7.93;2.40;;;30.80;11.30;;;;;;5072004;28;46404;-61
2022/06/18 09:20:56;;;;;;;5.77;2.33;;;30.90;11.20;;;;;;5069961;28;46670;-62
2022/06/18 09:23:31;;;;;;;5.17;2.00;;;30.90;10.70;;;;;;5069849;28;46508;-63
2022/06/18 09:25:59;;;;;;;11.80;2.00;;;31.10;11.00;;;;;;5069315;28;46456;-63
2022/06/18 09:28:34;;;;;;;4.80;2.10;;;31.10;10.90;;;;;;5062573;28;46390;-61
2022/06/18 09:31:29;;;;;;;4.23;2.00;;;31.20;10.50;;;;;;5070973;28;46517;-63
2022/06/18 09:33:59;;;;;;;9.70;2.03;;;31.30;10.10;;;;;;5066252;28;46389;-65
2022/06/18 09:36:35;;;;;;;6.57;2.37;;;31.40;9.90;;;;;;5069776;28;45879;-61
2022/06/18 09:39:07;;;;;;;3.37;2.00;;;31.60;9.50;;;;;;5068158;28;46627;-64
2022/06/18 09:41:38;;;;;;;3.83;2.00;;;31.60;9.60;;;;;;5070329;28;46427;-64
2022/06/18 09:44:11;;;;;;;10.43;2.20;;;31.80;10.00;;;;;;5071953;28;46978;-65
2022/06/18 09:47:00;;;;;;;6.23;2.20;;;31.90;10.10;;;;;;5071645;28;46561;-63
2022/06/18 09:49:28;;;;;;;3.47;1.83;;;31.80;9.40;;;;;;5068151;28;46465;-62
2022/06/18 09:52:04;;;;;;;3.47;2.27;;;31.80;9.40;;;;;;5071315;28;46488;-62
2022/06/18 09:54:37;;;;;;;5.50;2.03;;;31.80;8.70;;;;;;5067722;28;48024;-63
2022/06/18 09:57:03;;;;;;;4.80;2.03;;;31.90;8.10;;;;;;5071570;28;46521;-65
2022/06/18 09:59:39;;;;;;;3.50;1.90;;;31.90;9.30;;;;;;5073948;28;46673;-64
2022/06/18 10:02:33;;;;;;;6.43;2.07;;;31.90;8.80;;;;;;5068646;28;46486;-66
2022/06/18 10:07:51;;;;;;;7.87;2.53;;;32.00;9.10;;;;;;5066987;28;45696;-61
2022/06/18 10:10:21;;;;;;;7.20;1.77;;;32.20;9.50;;;;;;5067910;28;46397;-62
2022/06/18 10:12:53;;;;;;;7.73;2.17;;;32.20;8.80;;;;;;5065745;28;47327;-65
2022/06/18 10:15:20;;;;;;;7.33;2.47;;;32.20;8.70;;;;;;5065434;28;46456;-64
2022/06/18 10:18:19;;;;;;;4.97;1.83;;;32.20;8.50;;;;;;5070057;28;46718;-63
2022/06/18 10:21:20;;;;;;;6.77;2.23;;;32.20;7.70;;;;;;5070092;28;46515;-62
2022/06/18 10:24:18;;;;;;;11.13;2.30;;;32.20;8.00;;;;;;5043081;28;46125;-62
2022/06/18 10:27:09;;;;;;;5.77;1.80;;;32.20;8.10;;;;;;5066283;28;46941;-63
2022/06/18 10:29:52;;;;;;;3.80;1.90;;;32.20;7.30;;;;;;5068340;27;46457;-62
2022/06/18 10:32:26;;;;;;;4.27;1.90;;;31.80;7.10;;;;;;5063705;28;46440;-62
2022/06/18 10:35:04;;;;;;;5.07;1.70;;;31.70;7.00;;;;;;5072182;28;46652;-63
2022/06/18 10:38:01;;;;;;;9.40;1.93;;;31.80;7.10;;;;;;5062612;28;47353;-62
2022/06/18 10:40:41;;;;;;;3.73;2.03;;;32.00;7.20;;;;;;5069673;28;46622;-63
2022/06/18 10:43:15;;;;;;;2.90;1.60;;;32.20;7.30;;;;;;5068812;28;46387;-68
2022/06/18 10:45:48;;;;;;;8.60;1.97;;;32.20;6.90;;;;;;5071431;28;45839;-64
2022/06/18 10:48:18;;;;;;;3.10;1.80;;;32.00;7.30;;;;;;5068447;28;47988;-63
2022/06/18 10:50:56;;;;;;;4.57;1.63;;;31.90;7.10;;;;;;5065714;28;46401;-64
2022/06/18 10:53:27;;;;;;;4.07;1.70;;;31.80;7.10;;;;;;5070335;28;46292;-65
2022/06/18 10:56:05;;;;;;;6.00;1.60;;;31.90;7.20;;;;;;5067354;27;46444;-64
2022/06/18 10:58:31;;;;;;;3.20;1.77;;;31.90;7.20;;;;;;5067481;28;47222;-63
2022/06/18 11:01:04;;;;;;;3.73;1.60;;;31.90;7.10;;;;;;5073355;28;45857;-62
2022/06/18 11:03:33;;;;;;;3.40;1.70;;;32.10;7.30;;;;;;5069862;28;46079;-64
2022/06/18 11:06:03;;;;;;;5.77;1.87;;;32.20;6.00;;;;;;5071837;28;46370;-62
2022/06/18 11:08:32;;;;;;;5.70;2.00;;;32.20;5.50;;;;;;5066701;28;47088;-63
2022/06/18 11:11:07;;;;;;;5.60;1.87;;;32.20;4.80;;;;;;5067892;28;46452;-64
2022/06/18 11:13:37;;;;;;;5.33;1.80;;;32.20;5.20;;;;;;5072375;28;46398;-62
2022/06/18 11:16:23;;;;;;;11.40;1.80;;;32.30;5.90;;;;;;5067790;28;46389;-62
2022/06/18 11:19:01;;;;;;;3.27;1.57;;;32.40;6.00;;;;;;5068115;28;47326;-63
2022/06/18 11:21:32;;;;;;;3.50;2.10;;;32.50;5.70;;;;;;5073195;28;46299;-62
2022/06/18 11:24:20;;;;;;;3.10;1.50;;;32.40;5.50;;;;;;5068875;28;46675;-67
2022/06/18 11:26:59;;;;;;;6.40;1.93;;;32.30;5.50;;;;;;5073840;28;46555;-62
2022/06/18 11:29:45;;;;;;;8.43;2.20;;;32.30;4.80;;;;;;5068337;28;47280;-63
2022/06/18 11:32:25;;;;;;;15.20;2.03;;;32.30;4.60;;;;;;5071701;28;46426;-66
2022/06/18 11:35:10;;;;;;;6.07;1.80;;;32.20;4.70;;;;;;5072153;28;46389;-61
2022/06/18 11:37:36;;;;;;;6.90;1.60;;;32.20;4.60;;;;;;5067287;28;46566;-63
2022/06/18 11:40:09;;;;;;;5.33;2.07;;;32.30;4.70;;;;;;5073877;28;47293;-62
2022/06/18 11:42:47;;;;;;;3.00;1.57;;;32.50;4.00;;;;;;5072200;28;46663;-62
2022/06/18 11:45:31;;;;;;;6.23;1.73;;;32.60;4.00;;;;;;5075749;28;45799;-62
2022/06/18 11:48:03;;;;;;;6.63;2.10;;;32.70;4.60;;;;;;5072465;28;46411;-62
2022/06/18 11:50:45;;;;;;;3.30;1.73;;;32.80;4.20;;;;;;5068812;28;47419;-61
2022/06/18 11:53:28;;;;;;;5.70;1.77;;;32.70;4.50;;;;;;5075289;28;46347;-66
2022/06/18 11:55:57;;;;;;;3.77;1.73;;;32.70;4.30;;;;;;5068725;28;45859;-63
2022/06/18 11:58:46;;;;;;;4.90;2.00;;;32.70;4.30;;;;;;5073935;28;46554;-63
2022/06/18 12:01:48;;;;;;;6.40;2.00;;;32.90;4.40;;;;;;5065218;28;47371;-60
2022/06/18 12:04:17;;;;;;;11.17;1.80;;;32.90;4.30;;;;;;5060074;28;46646;-64
2022/06/18 12:06:56;;;;;;;6.83;2.13;;;32.90;4.30;;;;;;5065027;28;45865;-65
2022/06/18 12:09:22;;;;;;;3.07;1.67;;;32.80;3.90;;;;;;5070134;28;46519;-62
2022/06/18 12:12:05;;;;;;;3.60;1.87;;;32.90;3.90;;;;;;5070730;28;47065;-64
2022/06/18 12:14:49;;;;;;;4.90;2.23;;;33.00;3.40;;;;;;5065650;28;46476;-64
2022/06/18 12:17:25;;;;;;;4.90;1.90;;;32.90;4.00;;;;;;5072486;28;46404;-63
2022/06/18 12:19:55;;;;;;;6.40;1.90;;;32.90;4.10;;;;;;5066924;28;46427;-63
2022/06/18 12:22:45;;;;;;;5.60;2.23;;;33.00;4.00;;;;;;5069407;28;47411;-65
2022/06/18 12:25:27;;;;;;;8.13;2.03;;;32.90;3.30;;;;;;5071640;28;46491;-65
2022/06/18 12:28:10;;;;;;;5.10;1.67;;;33.00;3.50;;;;;;5066995;28;46399;-62
2022/06/18 12:30:41;;;;;;;4.17;1.93;;;33.10;4.20;;;;;;5069214;28;46471;-63
2022/06/18 12:33:39;;;;;;;10.13;1.67;;;33.30;4.00;;;;;;5069873;28;46442;-62
2022/06/18 12:36:11;;;;;;;4.80;1.90;;;33.10;3.80;;;;;;5067673;28;46733;-63
2022/06/18 12:39:16;;;;;;;5.13;1.87;;;33.00;3.60;;;;;;5068955;28;46424;-61
2022/06/18 12:41:49;;;;;;;5.20;2.00;;;32.90;3.50;;;;;;5071110;28;46387;-64
2022/06/18 12:44:55;;;;;;;8.53;1.70;;;33.00;3.70;;;;;;5069972;28;46381;-65
2022/06/18 12:47:33;;;;;;;10.40;2.53;;;33.00;3.80;;;;;;5062612;28;46449;-64
2022/06/18 12:50:10;;;;;;;8.10;2.10;;;33.00;3.80;;;;;;5068817;28;46536;-62
2022/06/18 12:52:59;;;;;;;3.70;2.00;;;33.10;3.50;;;;;;5070859;28;46480;-61
2022/06/18 12:55:39;;;;;;;5.73;1.90;;;33.10;3.80;;;;;;5071824;28;47197;-62
2022/06/18 12:58:38;;;;;;;6.57;2.00;;;33.20;4.50;;;;;;5072051;28;46520;-61
2022/06/18 13:01:11;;;;;;;5.40;1.77;;;33.20;3.80;;;;;;5068397;28;46763;-62
2022/06/18 13:04:25;;;;;;;8.73;2.20;;;33.20;4.20;;;;;;5073091;28;46528;-64
2022/06/18 13:07:32;;;;;;;6.47;1.70;;;33.10;3.70;;;;;;5053885;27;46339;-61
2022/06/18 13:09:57;;;;;;;14.00;2.20;;;33.00;3.60;;;;;;5072478;28;46406;-63
2022/06/18 13:12:35;;;;;;;6.90;2.13;;;32.90;3.40;;;;;;5067371;28;46397;-62
2022/06/18 13:15:12;;;;;;;6.17;1.97;;;32.80;3.30;;;;;;5069066;28;46440;-63
2022/06/18 13:17:52;;;;;;;4.97;1.90;;;32.80;3.40;;;;;;5068952;28;47492;-63
2022/06/18 13:20:29;;;;;;;8.73;2.10;;;32.70;3.20;;;;;;5069886;28;46330;-63
2022/06/18 13:22:55;;;;;;;8.20;2.23;;;32.80;3.60;;;;;;5068292;28;46389;-64
2022/06/18 13:28:26;;;;;;;13.33;2.30;;;33.00;3.20;;;;;;5072319;28;46706;-65
2022/06/18 13:31:07;;;;;;;5.80;2.10;;;33.10;3.00;;;;;;5071574;28;46381;-64
2022/06/18 13:33:51;;;;;;;8.00;1.70;;;33.10;3.10;;;;;;5069374;28;46406;-64